sensor_id;sensor_type;location;lat;lon;timestamp;temperature;humidity
9193;DHT22;4631;49.296;10.560;2023-02-15T00:01:25;-0.10;99.90
9193;DHT22;4631;49.296;10.560;2023-02-15T00:03:52;-0.10;99.90
9193;DHT22;4631;49.296;10.560;2023-02-15T00:06:18;-0.10;99.90
9193;DHT22;4631;49.296;10.560;2023-02-15T00:08:45;-0.10;99.90
9193;DHT22;4631;49.296;10.560;2023-02-15T00:11:12;-0.10;99.90
9193;DHT22;4631;49.296;10.560;2023-02-15T00:13:39;-0.10;99.90
9193;DHT22;4631;49.296;10.560;2023-02-15T00:16:08;-0.10;99.90
9193;DHT22;4631;49.296;10.560;2023-02-15T00:18:36;-0.10;99.90
9193;DHT22;4631;49.296;10.560;2023-02-15T00:21:03;-0.10;99.90
9193;DHT22;4631;49.296;10.560;2023-02-15T00:23:30;-0.10;99.90
9193;DHT22;4631;49.296;10.560;2023-02-15T00:26:04;-0.10;99.90
9193;DHT22;4631;49.296;10.560;2023-02-15T00:28:31;-0.10;99.90
9193;DHT22;4631;49.296;10.560;2023-02-15T00:31:02;-0.20;99.90
9193;DHT22;4631;49.296;10.560;2023-02-15T00:33:28;-0.20;99.90
9193;DHT22;4631;49.296;10.560;2023-02-15T00:35:57;-0.30;99.90
9193;DHT22;4631;49.296;10.560;2023-02-15T00:38:23;-0.40;99.90
9193;DHT22;4631;49.296;10.560;2023-02-15T00:40:51;-0.30;99.90
9193;DHT22;4631;49.296;10.560;2023-02-15T00:43:18;-0.40;99.90
9193;DHT22;4631;49.296;10.560;2023-02-15T00:45:45;-0.40;99.90
9193;DHT22;4631;49.296;10.560;2023-02-15T00:48:11;-0.30;99.90
9193;DHT22;4631;49.296;10.560;2023-02-15T00:50:38;-0.30;99.90
9193;DHT22;4631;49.296;10.560;2023-02-15T00:53:06;-0.30;99.90
9193;DHT22;4631;49.296;10.560;2023-02-15T00:55:33;-0.30;99.90
9193;DHT22;4631;49.296;10.560;2023-02-15T00:57:59;-0.20;99.90
9193;DHT22;4631;49.296;10.560;2023-02-15T01:00:26;-0.30;99.90
9193;DHT22;4631;49.296;10.560;2023-02-15T01:02:53;-0.30;99.90
9193;DHT22;4631;49.296;10.560;2023-02-15T01:05:19;-0.40;99.90
9193;DHT22;4631;49.296;10.560;2023-02-15T01:07:46;-0.40;99.90
9193;DHT22;4631;49.296;10.560;2023-02-15T01:10:14;-0.40;99.90
9193;DHT22;4631;49.296;10.560;2023-02-15T01:12:40;-0.50;99.90
9193;DHT22;4631;49.296;10.560;2023-02-15T01:15:07;-0.50;99.90
9193;DHT22;4631;49.296;10.560;2023-02-15T01:17:34;-0.60;99.90
9193;DHT22;4631;49.296;10.560;2023-02-15T01:20:01;-0.60;99.90
9193;DHT22;4631;49.296;10.560;2023-02-15T01:22:27;-0.50;99.90
9193;DHT22;4631;49.296;10.560;2023-02-15T01:24:54;-0.50;99.90
9193;DHT22;4631;49.296;10.560;2023-02-15T01:27:22;-0.40;99.90
9193;DHT22;4631;49.296;10.560;2023-02-15T01:29:48;-0.50;99.90
9193;DHT22;4631;49.296;10.560;2023-02-15T01:32:15;-0.40;99.90
9193;DHT22;4631;49.296;10.560;2023-02-15T01:34:42;-0.40;99.90
9193;DHT22;4631;49.296;10.560;2023-02-15T01:37:08;-0.40;99.90
9193;DHT22;4631;49.296;10.560;2023-02-15T01:39:35;-0.40;99.90
9193;DHT22;4631;49.296;10.560;2023-02-15T01:42:01;-0.40;99.90
9193;DHT22;4631;49.296;10.560;2023-02-15T01:44:49;-0.30;99.90
9193;DHT22;4631;49.296;10.560;2023-02-15T01:47:16;-0.40;99.90
9193;DHT22;4631;49.296;10.560;2023-02-15T01:49:44;-0.50;99.90
9193;DHT22;4631;49.296;10.560;2023-02-15T01:52:14;-0.50;99.90
9193;DHT22;4631;49.296;10.560;2023-02-15T01:54:42;-0.50;99.90
9193;DHT22;4631;49.296;10.560;2023-02-15T01:57:13;-0.50;99.90
9193;DHT22;4631;49.296;10.560;2023-02-15T01:59:41;-0.50;99.90
9193;DHT22;4631;49.296;10.560;2023-02-15T02:02:11;-0.50;99.90
9193;DHT22;4631;49.296;10.560;2023-02-15T02:04:40;-0.50;99.90
9193;DHT22;4631;49.296;10.560;2023-02-15T02:07:07;-0.50;99.90
9193;DHT22;4631;49.296;10.560;2023-02-15T02:09:35;-0.50;99.90
9193;DHT22;4631;49.296;10.560;2023-02-15T02:12:02;-0.50;99.90
9193;DHT22;4631;49.296;10.560;2023-02-15T02:14:29;-0.60;99.90
9193;DHT22;4631;49.296;10.560;2023-02-15T02:16:57;-0.60;99.90
9193;DHT22;4631;49.296;10.560;2023-02-15T02:19:42;-0.70;99.90
9193;DHT22;4631;49.296;10.560;2023-02-15T02:22:33;-0.70;99.90
9193;DHT22;4631;49.296;10.560;2023-02-15T02:27:50;-0.70;99.90
9193;DHT22;4631;49.296;10.560;2023-02-15T02:30:24;-0.70;99.90
9193;DHT22;4631;49.296;10.560;2023-02-15T02:32:59;-0.70;99.90
9193;DHT22;4631;49.296;10.560;2023-02-15T02:35:30;-0.90;99.90
9193;DHT22;4631;49.296;10.560;2023-02-15T02:38:03;-1.00;99.90
9193;DHT22;4631;49.296;10.560;2023-02-15T02:40:36;-1.00;99.90
9193;DHT22;4631;49.296;10.560;2023-02-15T02:43:05;-0.90;99.90
9193;DHT22;4631;49.296;10.560;2023-02-15T02:45:35;-0.90;99.90
9193;DHT22;4631;49.296;10.560;2023-02-15T02:48:07;-0.90;99.90
9193;DHT22;4631;49.296;10.560;2023-02-15T02:50:38;-0.90;99.90
9193;DHT22;4631;49.296;10.560;2023-02-15T02:53:05;-0.90;99.90
9193;DHT22;4631;49.296;10.560;2023-02-15T02:55:34;-0.80;99.90
9193;DHT22;4631;49.296;10.560;2023-02-15T02:58:04;-0.90;99.90
9193;DHT22;4631;49.296;10.560;2023-02-15T03:00:32;-0.90;99.90
9193;DHT22;4631;49.296;10.560;2023-02-15T03:03:02;-0.80;99.90
9193;DHT22;4631;49.296;10.560;2023-02-15T03:05:32;-0.80;99.90
9193;DHT22;4631;49.296;10.560;2023-02-15T03:08:00;-0.80;99.90
9193;DHT22;4631;49.296;10.560;2023-02-15T03:10:31;-0.80;99.90
9193;DHT22;4631;49.296;10.560;2023-02-15T03:12:59;-0.80;99.90
9193;DHT22;4631;49.296;10.560;2023-02-15T03:15:26;-0.70;99.90
9193;DHT22;4631;49.296;10.560;2023-02-15T03:18:16;-0.70;99.90
9193;DHT22;4631;49.296;10.560;2023-02-15T03:20:45;-0.70;99.90
9193;DHT22;4631;49.296;10.560;2023-02-15T03:23:13;-0.80;99.90
9193;DHT22;4631;49.296;10.560;2023-02-15T03:25:41;-0.80;99.90
9193;DHT22;4631;49.296;10.560;2023-02-15T03:28:09;-0.80;99.90
9193;DHT22;4631;49.296;10.560;2023-02-15T03:30:38;-0.80;99.90
9193;DHT22;4631;49.296;10.560;2023-02-15T03:33:06;-0.90;99.90
9193;DHT22;4631;49.296;10.560;2023-02-15T03:35:36;-1.10;99.90
9193;DHT22;4631;49.296;10.560;2023-02-15T03:38:06;-1.30;99.90
9193;DHT22;4631;49.296;10.560;2023-02-15T03:40:34;-1.40;99.90
9193;DHT22;4631;49.296;10.560;2023-02-15T03:43:21;-1.50;99.90
9193;DHT22;4631;49.296;10.560;2023-02-15T03:45:51;-1.40;99.90
9193;DHT22;4631;49.296;10.560;2023-02-15T03:48:21;-1.40;99.90
9193;DHT22;4631;49.296;10.560;2023-02-15T03:50:49;-1.40;99.90
9193;DHT22;4631;49.296;10.560;2023-02-15T03:53:37;-1.40;99.90
9193;DHT22;4631;49.296;10.560;2023-02-15T03:56:05;-1.50;99.90
9193;DHT22;4631;49.296;10.560;2023-02-15T03:58:32;-1.40;99.90
9193;DHT22;4631;49.296;10.560;2023-02-15T04:01:13;-1.40;99.90
9193;DHT22;4631;49.296;10.560;2023-02-15T04:04:03;-1.30;99.90
9193;DHT22;4631;49.296;10.560;2023-02-15T04:06:32;-1.30;99.90
9193;DHT22;4631;49.296;10.560;2023-02-15T04:09:00;-1.30;99.90
9193;DHT22;4631;49.296;10.560;2023-02-15T04:11:44;-1.30;99.90
9193;DHT22;4631;49.296;10.560;2023-02-15T04:14:11;-1.30;99.90
9193;DHT22;4631;49.296;10.560;2023-02-15T04:16:52;-1.30;99.90
9193;DHT22;4631;49.296;10.560;2023-02-15T04:19:18;-1.20;99.90
9193;DHT22;4631;49.296;10.560;2023-02-15T04:22:02;-1.20;99.90
9193;DHT22;4631;49.296;10.560;2023-02-15T04:24:48;-1.20;99.90
9193;DHT22;4631;49.296;10.560;2023-02-15T04:27:33;-1.20;99.90
9193;DHT22;4631;49.296;10.560;2023-02-15T04:29:59;-1.20;99.90
9193;DHT22;4631;49.296;10.560;2023-02-15T04:32:26;-1.10;99.90
9193;DHT22;4631;49.296;10.560;2023-02-15T04:34:53;-1.10;99.90
9193;DHT22;4631;49.296;10.560;2023-02-15T04:37:19;-1.20;99.90
9193;DHT22;4631;49.296;10.560;2023-02-15T04:39:46;-1.10;99.90
9193;DHT22;4631;49.296;10.560;2023-02-15T04:42:14;-1.10;99.90
9193;DHT22;4631;49.296;10.560;2023-02-15T04:44:41;-1.10;99.90
9193;DHT22;4631;49.296;10.560;2023-02-15T04:47:07;-1.10;99.90
9193;DHT22;4631;49.296;10.560;2023-02-15T04:49:34;-1.10;99.90
9193;DHT22;4631;49.296;10.560;2023-02-15T04:52:01;-1.10;99.90
9193;DHT22;4631;49.296;10.560;2023-02-15T04:54:27;-1.10;99.90
9193;DHT22;4631;49.296;10.560;2023-02-15T04:56:54;-1.10;99.90
9193;DHT22;4631;49.296;10.560;2023-02-15T04:59:23;-1.10;99.90
9193;DHT22;4631;49.296;10.560;2023-02-15T05:01:49;-1.10;99.90
9193;DHT22;4631;49.296;10.560;2023-02-15T05:04:16;-1.00;99.90
9193;DHT22;4631;49.296;10.560;2023-02-15T05:06:43;-1.00;99.90
9193;DHT22;4631;49.296;10.560;2023-02-15T05:09:10;-1.00;99.90
9193;DHT22;4631;49.296;10.560;2023-02-15T05:11:36;-1.00;99.90
9193;DHT22;4631;49.296;10.560;2023-02-15T05:14:03;-1.10;99.90
9193;DHT22;4631;49.296;10.560;2023-02-15T05:16:31;-1.00;99.90
9193;DHT22;4631;49.296;10.560;2023-02-15T05:18:58;-1.00;99.90
9193;DHT22;4631;49.296;10.560;2023-02-15T05:21:24;-1.00;99.90
9193;DHT22;4631;49.296;10.560;2023-02-15T05:23:51;-1.00;99.90
9193;DHT22;4631;49.296;10.560;2023-02-15T05:26:18;-1.00;99.90
9193;DHT22;4631;49.296;10.560;2023-02-15T05:29:03;-1.00;99.90
9193;DHT22;4631;49.296;10.560;2023-02-15T05:31:30;-1.00;99.90
9193;DHT22;4631;49.296;10.560;2023-02-15T05:33:58;-1.10;99.90
9193;DHT22;4631;49.296;10.560;2023-02-15T05:36:25;-1.10;99.90
9193;DHT22;4631;49.296;10.560;2023-02-15T05:38:51;-1.10;99.90
9193;DHT22;4631;49.296;10.560;2023-02-15T05:41:18;-1.10;99.90
9193;DHT22;4631;49.296;10.560;2023-02-15T05:43:44;-1.10;99.90
9193;DHT22;4631;49.296;10.560;2023-02-15T05:46:11;-1.20;99.90
9193;DHT22;4631;49.296;10.560;2023-02-15T05:48:38;-1.20;99.90
9193;DHT22;4631;49.296;10.560;2023-02-15T05:51:07;-1.20;99.90
9193;DHT22;4631;49.296;10.560;2023-02-15T05:53:34;-1.20;99.90
9193;DHT22;4631;49.296;10.560;2023-02-15T05:56:01;-1.20;99.90
9193;DHT22;4631;49.296;10.560;2023-02-15T05:58:29;-1.20;99.90
9193;DHT22;4631;49.296;10.560;2023-02-15T06:00:56;-1.20;99.90
9193;DHT22;4631;49.296;10.560;2023-02-15T06:03:23;-1.30;99.90
9193;DHT22;4631;49.296;10.560;2023-02-15T06:05:51;-1.20;99.90
9193;DHT22;4631;49.296;10.560;2023-02-15T06:08:20;-1.20;99.90
9193;DHT22;4631;49.296;10.560;2023-02-15T06:10:47;-1.20;99.90
9193;DHT22;4631;49.296;10.560;2023-02-15T06:13:13;-1.20;99.90
9193;DHT22;4631;49.296;10.560;2023-02-15T06:15:40;-1.20;99.90
9193;DHT22;4631;49.296;10.560;2023-02-15T06:18:07;-1.20;99.90
9193;DHT22;4631;49.296;10.560;2023-02-15T06:20:33;-1.20;99.90
9193;DHT22;4631;49.296;10.560;2023-02-15T06:23:00;-1.20;99.90
9193;DHT22;4631;49.296;10.560;2023-02-15T06:25:28;-1.20;99.90
9193;DHT22;4631;49.296;10.560;2023-02-15T06:27:55;-1.20;99.90
9193;DHT22;4631;49.296;10.560;2023-02-15T06:30:21;-1.20;99.90
9193;DHT22;4631;49.296;10.560;2023-02-15T06:32:48;-1.20;99.90
9193;DHT22;4631;49.296;10.560;2023-02-15T06:35:14;-1.20;99.90
9193;DHT22;4631;49.296;10.560;2023-02-15T06:37:41;-1.20;99.90
9193;DHT22;4631;49.296;10.560;2023-02-15T06:40:08;-1.20;99.90
9193;DHT22;4631;49.296;10.560;2023-02-15T06:42:36;-1.30;99.90
9193;DHT22;4631;49.296;10.560;2023-02-15T06:45:03;-1.30;99.90
9193;DHT22;4631;49.296;10.560;2023-02-15T06:47:30;-1.30;99.90
9193;DHT22;4631;49.296;10.560;2023-02-15T06:49:56;-1.30;99.90
9193;DHT22;4631;49.296;10.560;2023-02-15T06:52:23;-1.40;99.90
9193;DHT22;4631;49.296;10.560;2023-02-15T06:54:50;-1.50;99.90
9193;DHT22;4631;49.296;10.560;2023-02-15T06:57:17;-1.50;99.90
9193;DHT22;4631;49.296;10.560;2023-02-15T06:59:46;-1.40;99.90
9193;DHT22;4631;49.296;10.560;2023-02-15T07:02:13;-1.40;99.90
9193;DHT22;4631;49.296;10.560;2023-02-15T07:04:39;-1.40;99.90
9193;DHT22;4631;49.296;10.560;2023-02-15T07:07:07;-1.40;99.90
9193;DHT22;4631;49.296;10.560;2023-02-15T07:09:34;-1.40;99.90
9193;DHT22;4631;49.296;10.560;2023-02-15T07:12:01;-1.40;99.90
9193;DHT22;4631;49.296;10.560;2023-02-15T07:14:47;-1.40;99.90
9193;DHT22;4631;49.296;10.560;2023-02-15T07:17:14;-1.40;99.90
9193;DHT22;4631;49.296;10.560;2023-02-15T07:19:40;-1.30;99.90
9193;DHT22;4631;49.296;10.560;2023-02-15T07:22:07;-1.30;99.90
9193;DHT22;4631;49.296;10.560;2023-02-15T07:24:33;-1.20;99.90
9193;DHT22;4631;49.296;10.560;2023-02-15T07:27:00;-1.30;99.90
9193;DHT22;4631;49.296;10.560;2023-02-15T07:29:27;-1.30;99.90
9193;DHT22;4631;49.296;10.560;2023-02-15T07:31:55;-1.30;99.90
9193;DHT22;4631;49.296;10.560;2023-02-15T07:34:21;-1.20;99.90
9193;DHT22;4631;49.296;10.560;2023-02-15T07:36:50;-1.20;99.90
9193;DHT22;4631;49.296;10.560;2023-02-15T07:39:17;-1.20;99.90
9193;DHT22;4631;49.296;10.560;2023-02-15T07:41:43;-1.10;99.90
9193;DHT22;4631;49.296;10.560;2023-02-15T07:44:10;-1.10;99.90
9193;DHT22;4631;49.296;10.560;2023-02-15T07:46:37;-1.10;99.90
9193;DHT22;4631;49.296;10.560;2023-02-15T07:49:05;-1.00;99.90
9193;DHT22;4631;49.296;10.560;2023-02-15T07:51:32;-1.00;99.90
9193;DHT22;4631;49.296;10.560;2023-02-15T07:53:59;-0.90;99.90
9193;DHT22;4631;49.296;10.560;2023-02-15T07:56:25;-0.90;99.90
9193;DHT22;4631;49.296;10.560;2023-02-15T07:58:52;-0.80;99.90
9193;DHT22;4631;49.296;10.560;2023-02-15T08:01:22;-0.80;99.90
9193;DHT22;4631;49.296;10.560;2023-02-15T08:03:49;-0.80;99.90
9193;DHT22;4631;49.296;10.560;2023-02-15T08:06:17;-0.80;99.90
9193;DHT22;4631;49.296;10.560;2023-02-15T08:08:44;-0.80;99.90
9193;DHT22;4631;49.296;10.560;2023-02-15T08:11:15;-0.70;99.90
9193;DHT22;4631;49.296;10.560;2023-02-15T08:14:07;-0.90;99.90
9193;DHT22;4631;49.296;10.560;2023-02-15T08:16:35;-0.90;99.90
9193;DHT22;4631;49.296;10.560;2023-02-15T08:19:03;-0.90;99.90
9193;DHT22;4631;49.296;10.560;2023-02-15T08:21:31;-1.00;99.90
9193;DHT22;4631;49.296;10.560;2023-02-15T08:23:58;-1.00;99.90
9193;DHT22;4631;49.296;10.560;2023-02-15T08:26:25;-1.10;99.90
9193;DHT22;4631;49.296;10.560;2023-02-15T08:28:53;-1.00;99.90
9193;DHT22;4631;49.296;10.560;2023-02-15T08:31:19;-1.00;99.90
9193;DHT22;4631;49.296;10.560;2023-02-15T08:33:47;-1.00;99.90
9193;DHT22;4631;49.296;10.560;2023-02-15T08:36:14;-1.00;99.90
9193;DHT22;4631;49.296;10.560;2023-02-15T08:38:43;-1.00;99.90
9193;DHT22;4631;49.296;10.560;2023-02-15T08:41:10;-0.90;99.90
9193;DHT22;4631;49.296;10.560;2023-02-15T08:43:37;-0.90;99.90
9193;DHT22;4631;49.296;10.560;2023-02-15T08:46:04;-0.80;99.90
9193;DHT22;4631;49.296;10.560;2023-02-15T08:48:30;-0.70;99.90
9193;DHT22;4631;49.296;10.560;2023-02-15T08:50:57;-0.70;99.90
9193;DHT22;4631;49.296;10.560;2023-02-15T08:53:24;-0.60;99.90
9193;DHT22;4631;49.296;10.560;2023-02-15T08:55:56;-0.60;99.90
9193;DHT22;4631;49.296;10.560;2023-02-15T08:58:25;-0.60;99.90
9193;DHT22;4631;49.296;10.560;2023-02-15T09:00:51;-0.60;99.90
9193;DHT22;4631;49.296;10.560;2023-02-15T09:03:18;-0.60;99.90
9193;DHT22;4631;49.296;10.560;2023-02-15T09:05:44;-0.50;99.90
9193;DHT22;4631;49.296;10.560;2023-02-15T09:08:11;-0.50;99.90
9193;DHT22;4631;49.296;10.560;2023-02-15T09:10:38;-0.50;99.90
9193;DHT22;4631;49.296;10.560;2023-02-15T09:13:06;-0.50;99.90
9193;DHT22;4631;49.296;10.560;2023-02-15T09:15:32;-0.50;99.90
9193;DHT22;4631;49.296;10.560;2023-02-15T09:17:59;-0.40;99.90
9193;DHT22;4631;49.296;10.560;2023-02-15T09:20:31;-0.30;99.90
9193;DHT22;4631;49.296;10.560;2023-02-15T09:22:58;-0.20;99.90
9193;DHT22;4631;49.296;10.560;2023-02-15T09:25:25;-0.20;99.90
9193;DHT22;4631;49.296;10.560;2023-02-15T09:27:52;0.00;99.90
9193;DHT22;4631;49.296;10.560;2023-02-15T09:30:20;0.00;99.90
9193;DHT22;4631;49.296;10.560;2023-02-15T09:32:46;0.10;99.90
9193;DHT22;4631;49.296;10.560;2023-02-15T09:35:13;0.20;99.90
9193;DHT22;4631;49.296;10.560;2023-02-15T09:37:40;0.20;99.90
9193;DHT22;4631;49.296;10.560;2023-02-15T09:40:06;0.30;99.90
9193;DHT22;4631;49.296;10.560;2023-02-15T09:45:31;0.40;99.90
9193;DHT22;4631;49.296;10.560;2023-02-15T09:48:10;0.40;99.90
9193;DHT22;4631;49.296;10.560;2023-02-15T09:50:42;0.30;99.90
9193;DHT22;4631;49.296;10.560;2023-02-15T09:53:17;0.20;99.90
9193;DHT22;4631;49.296;10.560;2023-02-15T09:55:48;0.20;99.90
9193;DHT22;4631;49.296;10.560;2023-02-15T09:58:19;0.30;99.90
9193;DHT22;4631;49.296;10.560;2023-02-15T10:00:49;0.40;99.90
9193;DHT22;4631;49.296;10.560;2023-02-15T10:03:23;0.40;99.90
9193;DHT22;4631;49.296;10.560;2023-02-15T10:05:58;0.40;99.90
9193;DHT22;4631;49.296;10.560;2023-02-15T10:08:36;0.50;99.90
9193;DHT22;4631;49.296;10.560;2023-02-15T10:11:07;0.50;99.90
9193;DHT22;4631;49.296;10.560;2023-02-15T10:13:58;0.60;99.90
9193;DHT22;4631;49.296;10.560;2023-02-15T10:16:31;0.70;99.90
9193;DHT22;4631;49.296;10.560;2023-02-15T10:19:03;0.70;99.90
9193;DHT22;4631;49.296;10.560;2023-02-15T10:21:37;0.80;99.90
9193;DHT22;4631;49.296;10.560;2023-02-15T10:24:10;0.80;99.90
9193;DHT22;4631;49.296;10.560;2023-02-15T10:26:40;0.80;99.90
9193;DHT22;4631;49.296;10.560;2023-02-15T10:29:09;0.80;99.90
9193;DHT22;4631;49.296;10.560;2023-02-15T10:31:45;0.80;99.90
9193;DHT22;4631;49.296;10.560;2023-02-15T10:34:15;0.90;99.90
9193;DHT22;4631;49.296;10.560;2023-02-15T10:36:47;0.90;99.90
9193;DHT22;4631;49.296;10.560;2023-02-15T10:39:18;1.00;99.90
9193;DHT22;4631;49.296;10.560;2023-02-15T10:41:48;1.00;99.90
9193;DHT22;4631;49.296;10.560;2023-02-15T10:44:26;1.10;99.90
9193;DHT22;4631;49.296;10.560;2023-02-15T10:47:02;1.10;99.90
9193;DHT22;4631;49.296;10.560;2023-02-15T10:49:40;1.10;99.90
9193;DHT22;4631;49.296;10.560;2023-02-15T10:52:14;1.20;99.90
9193;DHT22;4631;49.296;10.560;2023-02-15T10:54:47;1.20;99.90
9193;DHT22;4631;49.296;10.560;2023-02-15T10:57:16;1.10;99.90
9193;DHT22;4631;49.296;10.560;2023-02-15T11:02:42;1.20;99.90
9193;DHT22;4631;49.296;10.560;2023-02-15T11:05:16;1.20;99.90
9193;DHT22;4631;49.296;10.560;2023-02-15T11:07:46;1.20;99.90
9193;DHT22;4631;49.296;10.560;2023-02-15T11:10:19;1.30;99.90
9193;DHT22;4631;49.296;10.560;2023-02-15T11:12:49;1.40;99.90
9193;DHT22;4631;49.296;10.560;2023-02-15T11:15:17;1.40;99.90
9193;DHT22;4631;49.296;10.560;2023-02-15T11:17:48;1.40;99.90
9193;DHT22;4631;49.296;10.560;2023-02-15T11:20:17;1.50;99.90
9193;DHT22;4631;49.296;10.560;2023-02-15T11:22:46;1.60;99.90
9193;DHT22;4631;49.296;10.560;2023-02-15T11:25:14;1.70;99.90
9193;DHT22;4631;49.296;10.560;2023-02-15T11:27:42;1.70;99.90
9193;DHT22;4631;49.296;10.560;2023-02-15T11:30:13;1.70;99.90
9193;DHT22;4631;49.296;10.560;2023-02-15T11:32:42;1.80;99.90
9193;DHT22;4631;49.296;10.560;2023-02-15T11:35:17;1.80;99.90
9193;DHT22;4631;49.296;10.560;2023-02-15T11:37:45;1.80;99.90
9193;DHT22;4631;49.296;10.560;2023-02-15T11:40:15;1.80;99.90
9193;DHT22;4631;49.296;10.560;2023-02-15T11:42:44;1.80;99.90
9193;DHT22;4631;49.296;10.560;2023-02-15T11:45:16;1.80;99.90
9193;DHT22;4631;49.296;10.560;2023-02-15T11:47:44;1.80;99.90
9193;DHT22;4631;49.296;10.560;2023-02-15T11:50:13;1.90;99.90
9193;DHT22;4631;49.296;10.560;2023-02-15T11:52:40;1.90;99.90
9193;DHT22;4631;49.296;10.560;2023-02-15T11:55:09;2.00;99.90
9193;DHT22;4631;49.296;10.560;2023-02-15T11:57:38;2.00;99.90
9193;DHT22;4631;49.296;10.560;2023-02-15T12:00:09;2.10;99.90
9193;DHT22;4631;49.296;10.560;2023-02-15T12:02:37;2.10;99.90
9193;DHT22;4631;49.296;10.560;2023-02-15T12:05:06;2.20;99.90
9193;DHT22;4631;49.296;10.560;2023-02-15T12:07:37;2.20;99.90
9193;DHT22;4631;49.296;10.560;2023-02-15T12:10:13;2.20;99.90
9193;DHT22;4631;49.296;10.560;2023-02-15T12:12:43;2.20;99.90
9193;DHT22;4631;49.296;10.560;2023-02-15T12:15:10;2.20;99.90
9193;DHT22;4631;49.296;10.560;2023-02-15T12:17:38;2.30;99.90
9193;DHT22;4631;49.296;10.560;2023-02-15T12:20:06;2.40;99.90
9193;DHT22;4631;49.296;10.560;2023-02-15T12:22:34;2.30;99.90
9193;DHT22;4631;49.296;10.560;2023-02-15T12:25:04;2.30;99.90
9193;DHT22;4631;49.296;10.560;2023-02-15T12:27:43;2.20;99.90
9193;DHT22;4631;49.296;10.560;2023-02-15T12:30:15;2.10;99.90
9193;DHT22;4631;49.296;10.560;2023-02-15T12:32:47;2.20;99.90
9193;DHT22;4631;49.296;10.560;2023-02-15T12:35:15;2.20;99.90
9193;DHT22;4631;49.296;10.560;2023-02-15T12:37:51;2.30;99.90
9193;DHT22;4631;49.296;10.560;2023-02-15T12:40:20;2.40;99.90
9193;DHT22;4631;49.296;10.560;2023-02-15T12:42:48;2.50;99.90
9193;DHT22;4631;49.296;10.560;2023-02-15T12:45:22;2.60;99.90
9193;DHT22;4631;49.296;10.560;2023-02-15T12:50:32;2.60;99.90
9193;DHT22;4631;49.296;10.560;2023-02-15T12:53:05;2.70;99.90
9193;DHT22;4631;49.296;10.560;2023-02-15T12:55:34;2.80;99.90
9193;DHT22;4631;49.296;10.560;2023-02-15T12:58:07;2.80;99.90
9193;DHT22;4631;49.296;10.560;2023-02-15T13:00:33;2.80;99.90
9193;DHT22;4631;49.296;10.560;2023-02-15T13:03:00;2.80;99.90
9193;DHT22;4631;49.296;10.560;2023-02-15T13:05:30;2.70;99.90
9193;DHT22;4631;49.296;10.560;2023-02-15T13:07:58;2.80;99.90
9193;DHT22;4631;49.296;10.560;2023-02-15T13:10:27;2.80;99.90
9193;DHT22;4631;49.296;10.560;2023-02-15T13:12:56;2.60;99.90
9193;DHT22;4631;49.296;10.560;2023-02-15T13:15:24;2.60;99.90
9193;DHT22;4631;49.296;10.560;2023-02-15T13:17:51;2.50;99.90
9193;DHT22;4631;49.296;10.560;2023-02-15T13:20:19;2.70;99.90
9193;DHT22;4631;49.296;10.560;2023-02-15T13:22:48;2.60;99.90
9193;DHT22;4631;49.296;10.560;2023-02-15T13:25:17;2.60;99.90
9193;DHT22;4631;49.296;10.560;2023-02-15T13:27:45;2.60;99.90
9193;DHT22;4631;49.296;10.560;2023-02-15T13:30:22;2.60;99.90
9193;DHT22;4631;49.296;10.560;2023-02-15T13:32:51;2.50;99.90
9193;DHT22;4631;49.296;10.560;2023-02-15T13:35:18;2.60;99.90
9193;DHT22;4631;49.296;10.560;2023-02-15T13:37:53;2.70;99.90
9193;DHT22;4631;49.296;10.560;2023-02-15T13:40:22;2.70;99.90
9193;DHT22;4631;49.296;10.560;2023-02-15T13:42:52;2.70;99.90
9193;DHT22;4631;49.296;10.560;2023-02-15T13:45:26;2.70;99.90
9193;DHT22;4631;49.296;10.560;2023-02-15T13:47:57;2.70;99.90
9193;DHT22;4631;49.296;10.560;2023-02-15T13:50:31;2.70;99.90
9193;DHT22;4631;49.296;10.560;2023-02-15T13:53:05;2.70;99.90
9193;DHT22;4631;49.296;10.560;2023-02-15T13:55:36;2.60;99.90
9193;DHT22;4631;49.296;10.560;2023-02-15T14:00:48;2.70;99.90
9193;DHT22;4631;49.296;10.560;2023-02-15T14:06:07;2.90;99.90
9193;DHT22;4631;49.296;10.560;2023-02-15T14:08:42;2.90;99.90
9193;DHT22;4631;49.296;10.560;2023-02-15T14:11:12;3.10;99.90
9193;DHT22;4631;49.296;10.560;2023-02-15T14:13:46;3.20;99.90
9193;DHT22;4631;49.296;10.560;2023-02-15T14:16:22;3.40;99.90
9193;DHT22;4631;49.296;10.560;2023-02-15T14:18:54;3.40;99.90
9193;DHT22;4631;49.296;10.560;2023-02-15T14:21:24;3.50;99.90
9193;DHT22;4631;49.296;10.560;2023-02-15T14:23:54;3.50;99.90
9193;DHT22;4631;49.296;10.560;2023-02-15T14:26:27;3.60;99.90
9193;DHT22;4631;49.296;10.560;2023-02-15T14:29:02;3.70;99.90
9193;DHT22;4631;49.296;10.560;2023-02-15T14:31:33;3.90;99.90
9193;DHT22;4631;49.296;10.560;2023-02-15T14:34:01;4.10;99.90
9193;DHT22;4631;49.296;10.560;2023-02-15T14:36:29;4.30;99.90
9193;DHT22;4631;49.296;10.560;2023-02-15T14:38:59;4.50;99.90
9193;DHT22;4631;49.296;10.560;2023-02-15T14:41:31;4.60;99.90
9193;DHT22;4631;49.296;10.560;2023-02-15T14:44:04;4.80;99.90
9193;DHT22;4631;49.296;10.560;2023-02-15T14:46:37;4.90;99.90
9193;DHT22;4631;49.296;10.560;2023-02-15T14:49:06;5.20;99.90
9193;DHT22;4631;49.296;10.560;2023-02-15T14:59:42;6.30;99.90
9193;DHT22;4631;49.296;10.560;2023-02-15T15:02:12;6.40;99.90
9193;DHT22;4631;49.296;10.560;2023-02-15T15:04:41;6.60;99.90
9193;DHT22;4631;49.296;10.560;2023-02-15T15:07:09;6.70;99.90
9193;DHT22;4631;49.296;10.560;2023-02-15T15:09:39;6.80;99.90
9193;DHT22;4631;49.296;10.560;2023-02-15T15:12:14;6.90;99.90
9193;DHT22;4631;49.296;10.560;2023-02-15T15:14:41;7.00;99.90
9193;DHT22;4631;49.296;10.560;2023-02-15T15:17:13;7.00;99.90
9193;DHT22;4631;49.296;10.560;2023-02-15T15:20:02;7.00;99.90
9193;DHT22;4631;49.296;10.560;2023-02-15T15:22:30;6.90;99.90
9193;DHT22;4631;49.296;10.560;2023-02-15T15:24:58;6.70;99.90
9193;DHT22;4631;49.296;10.560;2023-02-15T15:33:04;5.70;99.90
9193;DHT22;4631;49.296;10.560;2023-02-15T15:35:43;5.40;99.90
9193;DHT22;4631;49.296;10.560;2023-02-15T15:38:18;5.20;99.90
9193;DHT22;4631;49.296;10.560;2023-02-15T15:40:55;5.10;99.90
9193;DHT22;4631;49.296;10.560;2023-02-15T15:46:34;4.90;99.90
9193;DHT22;4631;49.296;10.560;2023-02-15T15:49:06;4.70;99.90
9193;DHT22;4631;49.296;10.560;2023-02-15T15:51:37;4.60;99.90
9193;DHT22;4631;49.296;10.560;2023-02-15T15:54:05;4.50;99.90
9193;DHT22;4631;49.296;10.560;2023-02-15T15:56:33;4.40;99.90
9193;DHT22;4631;49.296;10.560;2023-02-15T15:59:01;4.30;99.90
9193;DHT22;4631;49.296;10.560;2023-02-15T16:01:29;4.30;99.90
9193;DHT22;4631;49.296;10.560;2023-02-15T16:03:57;4.20;99.90
9193;DHT22;4631;49.296;10.560;2023-02-15T16:06:32;4.20;99.90
9193;DHT22;4631;49.296;10.560;2023-02-15T16:09:12;4.10;99.90
9193;DHT22;4631;49.296;10.560;2023-02-15T16:11:39;4.00;99.90
9193;DHT22;4631;49.296;10.560;2023-02-15T16:14:11;4.00;99.90
9193;DHT22;4631;49.296;10.560;2023-02-15T16:16:38;3.90;99.90
9193;DHT22;4631;49.296;10.560;2023-02-15T16:19:05;3.90;99.90
9193;DHT22;4631;49.296;10.560;2023-02-15T16:21:34;3.80;99.90
9193;DHT22;4631;49.296;10.560;2023-02-15T16:24:07;3.80;99.90
9193;DHT22;4631;49.296;10.560;2023-02-15T16:26:44;3.70;99.90
9193;DHT22;4631;49.296;10.560;2023-02-15T16:29:16;3.70;99.90
9193;DHT22;4631;49.296;10.560;2023-02-15T16:31:43;3.70;99.90
9193;DHT22;4631;49.296;10.560;2023-02-15T16:34:14;3.70;99.90
9193;DHT22;4631;49.296;10.560;2023-02-15T16:36:43;3.60;99.90
9193;DHT22;4631;49.296;10.560;2023-02-15T16:39:17;3.50;99.90
9193;DHT22;4631;49.296;10.560;2023-02-15T16:41:44;3.40;99.90